createdAt,value
2018-08-03T00:01:51.681Z,22.40
2018-08-03T00:06:50.573Z,22.40
2018-08-03T00:09:20.195Z,22.30
2018-08-03T00:11:49.819Z,22.40
2018-08-03T00:14:19.574Z,22.30
2018-08-03T00:16:49.147Z,22.30
2018-08-03T00:19:18.776Z,22.30
2018-08-03T00:21:48.388Z,22.20
2018-08-03T00:24:17.979Z,22.20
2018-08-03T00:26:47.698Z,22.20
2018-08-03T00:29:17.310Z,22.10
2018-08-03T00:31:46.907Z,22.10
2018-08-03T00:34:16.665Z,22.10
2018-08-03T00:36:46.429Z,22.00
2018-08-03T00:39:16.748Z,22.00
2018-08-03T00:41:46.394Z,21.90
2018-08-03T00:44:15.951Z,21.90
2018-08-03T00:46:45.529Z,21.80
2018-08-03T00:49:15.175Z,21.80
2018-08-03T00:51:45.055Z,21.80
2018-08-03T00:54:14.666Z,21.80
2018-08-03T00:56:44.305Z,21.70
2018-08-03T00:59:14.497Z,21.60
2018-08-03T01:01:44.091Z,21.60
2018-08-03T01:04:14.077Z,21.60
2018-08-03T01:06:44.494Z,21.50
2018-08-03T01:09:15.184Z,21.50
2018-08-03T01:11:44.943Z,21.50
2018-08-03T01:14:14.655Z,21.40
2018-08-03T01:16:44.304Z,21.40
2018-08-03T01:19:15.110Z,21.40
2018-08-03T01:21:45.704Z,21.30
2018-08-03T01:24:15.273Z,21.30
2018-08-03T01:26:44.853Z,21.30
2018-08-03T01:29:14.407Z,21.30
2018-08-03T01:31:44.049Z,21.30
2018-08-03T01:36:43.244Z,21.20
2018-08-03T01:39:12.891Z,21.20
2018-08-03T01:41:43.332Z,21.20
2018-08-03T01:44:13.056Z,21.20
2018-08-03T01:46:42.705Z,21.20
2018-08-03T01:49:12.311Z,21.10
2018-08-03T01:51:43.524Z,21.10
2018-08-03T01:54:13.239Z,21.10
2018-08-03T01:56:42.803Z,21.10
2018-08-03T01:59:12.461Z,21.20
2018-08-03T02:01:42.080Z,21.20
2018-08-03T02:04:11.676Z,21.20
2018-08-03T02:06:43.184Z,21.20
2018-08-03T02:09:12.824Z,21.20
2018-08-03T02:14:11.711Z,21.20
2018-08-03T02:16:41.326Z,21.10
2018-08-03T02:19:10.930Z,21.10
2018-08-03T02:21:41.799Z,21.00
2018-08-03T02:24:11.366Z,21.10
2018-08-03T02:26:41.068Z,21.00
2018-08-03T02:29:10.661Z,21.00
2018-08-03T02:31:40.294Z,21.00
2018-08-03T02:34:09.978Z,21.00
2018-08-03T02:36:41.106Z,21.00
2018-08-03T02:39:12.081Z,21.00
2018-08-03T02:41:41.682Z,21.00
2018-08-03T02:44:11.223Z,20.90
2018-08-03T02:46:40.834Z,20.90
2018-08-03T02:49:10.408Z,20.90
2018-08-03T02:51:40.916Z,20.90
2018-08-03T02:54:10.509Z,20.80
2018-08-03T02:56:40.220Z,20.80
2018-08-03T02:59:09.829Z,20.80
2018-08-03T03:01:39.469Z,20.80
2018-08-03T03:04:09.084Z,20.70
2018-08-03T03:09:11.292Z,20.70
2018-08-03T03:11:40.934Z,20.60
2018-08-03T03:14:10.526Z,20.60
2018-08-03T03:16:40.080Z,20.60
2018-08-03T03:19:09.622Z,20.50
2018-08-03T03:21:40.385Z,20.50
2018-08-03T03:24:09.985Z,20.50
2018-08-03T03:26:39.626Z,20.50
2018-08-03T03:29:09.201Z,20.50
2018-08-03T03:34:08.136Z,20.50
2018-08-03T03:36:37.961Z,20.50
2018-08-03T03:39:12.388Z,20.40
2018-08-03T03:41:42.257Z,20.40
2018-08-03T03:44:11.902Z,20.40
2018-08-03T03:46:41.571Z,20.40
2018-08-03T03:49:11.159Z,20.40
2018-08-03T03:51:42.303Z,20.40
2018-08-03T03:54:11.922Z,20.40
2018-08-03T03:56:41.531Z,20.40
2018-08-03T03:59:11.160Z,20.40
2018-08-03T04:01:40.831Z,20.40
2018-08-03T04:04:10.418Z,20.40
2018-08-03T04:06:41.586Z,20.50
2018-08-03T04:09:12.779Z,20.50
2018-08-03T04:14:11.941Z,20.50
2018-08-03T04:16:41.542Z,20.50
2018-08-03T04:19:11.688Z,20.60
2018-08-03T04:21:42.224Z,20.70
2018-08-03T04:24:24.596Z,20.70
2018-08-03T04:29:23.763Z,20.80
2018-08-03T04:31:53.834Z,20.90
2018-08-03T04:34:23.965Z,21.10
2018-08-03T04:36:53.583Z,21.20
2018-08-03T04:39:23.822Z,21.30
2018-08-03T04:41:53.554Z,21.40
2018-08-03T04:44:23.301Z,21.50
2018-08-03T04:46:53.490Z,21.60
2018-08-03T04:49:24.652Z,21.70
2018-08-03T04:51:54.535Z,21.80
2018-08-03T04:54:24.448Z,22.00
2018-08-03T04:56:53.976Z,22.10
2018-08-03T04:59:23.716Z,22.20
2018-08-03T05:01:54.091Z,22.20
2018-08-03T05:04:23.712Z,22.30
2018-08-03T05:06:53.446Z,22.50
2018-08-03T05:09:23.142Z,22.40
2018-08-03T05:11:52.718Z,22.50
2018-08-03T05:14:22.374Z,22.70
2018-08-03T05:16:52.243Z,22.80
2018-08-03T05:19:21.810Z,23.00
2018-08-03T05:21:51.421Z,23.10
2018-08-03T05:24:21.086Z,23.40
2018-08-03T05:26:50.655Z,23.50
2018-08-03T05:29:20.273Z,23.60
2018-08-03T05:31:49.863Z,23.80
2018-08-03T05:34:19.487Z,23.90
2018-08-03T05:36:49.029Z,24.00
2018-08-03T05:39:18.598Z,24.20
2018-08-03T05:41:48.161Z,24.20
2018-08-03T05:44:17.800Z,24.40
2018-08-03T05:46:47.424Z,24.50
2018-08-03T05:49:17.091Z,24.70
2018-08-03T05:51:46.722Z,24.70
2018-08-03T05:54:16.278Z,25.00
2018-08-03T05:56:45.851Z,24.90
2018-08-03T05:59:15.494Z,25.00
2018-08-03T06:01:45.047Z,25.00
2018-08-03T06:04:14.685Z,25.30
2018-08-03T06:06:44.424Z,25.40
2018-08-03T06:09:14.053Z,25.60
2018-08-03T06:11:43.655Z,25.70
2018-08-03T06:14:13.226Z,25.50
2018-08-03T06:16:42.801Z,25.80
2018-08-03T06:19:12.384Z,26.00
2018-08-03T06:21:43.149Z,26.20
2018-08-03T06:24:12.766Z,26.30
2018-08-03T06:26:42.365Z,26.60
2018-08-03T06:29:11.956Z,26.70
2018-08-03T06:31:41.621Z,26.70
2018-08-03T06:34:11.258Z,26.90
2018-08-03T06:36:42.335Z,26.90
2018-08-03T06:39:12.216Z,27.00
2018-08-03T06:41:42.457Z,27.10
2018-08-03T06:44:12.019Z,26.90
2018-08-03T06:46:41.689Z,26.90
2018-08-03T06:49:11.307Z,27.10
2018-08-03T06:51:42.143Z,27.30
2018-08-03T06:54:11.757Z,27.50
2018-08-03T06:56:41.334Z,27.60
2018-08-03T06:59:10.944Z,27.80
2018-08-03T07:01:40.604Z,27.80
2018-08-03T07:04:10.306Z,28.10
2018-08-03T07:06:41.207Z,28.40
2018-08-03T07:09:12.452Z,28.70
2018-08-03T07:11:42.074Z,29.00
2018-08-03T07:14:11.705Z,29.00
2018-08-03T07:16:41.295Z,28.80
2018-08-03T07:19:10.927Z,28.90
2018-08-03T07:21:42.398Z,28.80
2018-08-03T07:24:12.086Z,28.40
2018-08-03T07:29:10.872Z,28.30
2018-08-03T07:31:40.491Z,28.00
2018-08-03T07:34:10.243Z,28.00
2018-08-03T07:36:40.979Z,28.20
2018-08-03T07:39:10.628Z,28.50
2018-08-03T07:41:40.301Z,28.50
2018-08-03T07:44:09.898Z,28.70
2018-08-03T07:46:39.535Z,28.70
2018-08-03T07:49:09.180Z,28.70
2018-08-03T07:51:39.377Z,28.70
2018-08-03T07:54:09.056Z,28.60
2018-08-03T07:56:38.606Z,28.70
2018-08-03T07:59:08.172Z,28.70
2018-08-03T08:01:37.963Z,28.80
2018-08-03T08:04:07.603Z,29.00
2018-08-03T08:06:40.481Z,28.90
2018-08-03T08:09:11.961Z,28.90
2018-08-03T08:11:42.134Z,28.80
2018-08-03T08:16:42.889Z,28.90
2018-08-03T08:19:12.715Z,28.80
2018-08-03T08:21:43.115Z,29.00
2018-08-03T08:24:12.881Z,29.20
2018-08-03T08:26:42.533Z,29.00
2018-08-03T08:29:12.143Z,28.90
2018-08-03T08:31:41.805Z,29.00
2018-08-03T08:34:11.481Z,29.20
2018-08-03T08:36:42.742Z,29.20
2018-08-03T08:39:13.922Z,29.50
2018-08-03T08:41:43.931Z,29.80
2018-08-03T08:44:14.353Z,29.80
2018-08-03T08:46:44.148Z,29.80
2018-08-03T08:49:13.933Z,30.20
2018-08-03T08:51:44.196Z,30.30
2018-08-03T08:54:13.982Z,30.20
2018-08-03T08:56:43.574Z,29.80
2018-08-03T08:59:13.343Z,29.70
2018-08-03T09:01:43.058Z,29.70
2018-08-03T09:04:12.877Z,29.70
2018-08-03T09:06:44.172Z,29.90
2018-08-03T09:09:13.848Z,29.70
2018-08-03T09:11:43.500Z,29.60
2018-08-03T09:14:13.269Z,29.80
2018-08-03T09:16:42.852Z,29.80
2018-08-03T09:19:12.456Z,29.80
2018-08-03T09:21:43.787Z,29.90
2018-08-03T09:24:13.465Z,30.00
2018-08-03T09:26:43.221Z,30.20
2018-08-03T09:29:12.879Z,30.10
2018-08-03T09:31:42.733Z,29.70
2018-08-03T09:34:12.303Z,29.80
2018-08-03T09:36:43.965Z,29.70
2018-08-03T09:39:13.570Z,30.00
2018-08-03T09:41:43.433Z,30.20
2018-08-03T09:44:13.262Z,30.40
2018-08-03T09:46:43.289Z,30.40
2018-08-03T09:49:12.999Z,30.60
2018-08-03T09:51:44.173Z,30.60
2018-08-03T09:54:14.023Z,30.60
2018-08-03T09:56:44.010Z,30.70
2018-08-03T09:59:13.643Z,30.60
2018-08-03T10:01:44.024Z,30.70
2018-08-03T10:04:13.589Z,30.90
2018-08-03T10:06:45.061Z,30.60
2018-08-03T10:09:14.742Z,30.70
2018-08-03T10:11:44.905Z,31.00
2018-08-03T10:14:14.959Z,30.90
2018-08-03T10:16:45.056Z,30.90
2018-08-03T10:19:14.757Z,31.00
2018-08-03T10:21:45.410Z,31.20
2018-08-03T10:24:15.121Z,31.30
2018-08-03T10:26:45.269Z,31.20
2018-08-03T10:29:15.043Z,31.20
2018-08-03T10:31:45.417Z,31.30
2018-08-03T10:34:16.084Z,31.40
2018-08-03T10:36:46.559Z,31.50
2018-08-03T10:41:46.567Z,31.60
2018-08-03T10:44:16.236Z,31.80
2018-08-03T10:46:46.465Z,31.70
2018-08-03T10:49:16.245Z,31.60
2018-08-03T10:54:16.158Z,31.50
2018-08-03T10:56:47.250Z,31.60
2018-08-03T10:59:16.964Z,31.70
2018-08-03T11:01:47.385Z,32.00
2018-08-03T11:04:17.071Z,31.90
2018-08-03T11:06:47.216Z,31.90
2018-08-03T11:09:16.944Z,32.00
2018-08-03T11:11:47.265Z,32.00
2018-08-03T11:14:17.030Z,32.20
2018-08-03T11:16:47.363Z,32.30
2018-08-03T11:19:17.261Z,32.50
2018-08-03T11:21:47.367Z,32.60
2018-08-03T11:26:46.902Z,32.70
2018-08-03T11:29:16.649Z,32.80
2018-08-03T11:31:46.823Z,32.40
2018-08-03T11:34:16.584Z,32.30
2018-08-03T11:36:46.669Z,32.40
2018-08-03T11:39:16.402Z,32.40
2018-08-03T11:41:46.470Z,32.40
2018-08-03T11:44:16.651Z,32.40
2018-08-03T11:49:16.682Z,32.80
2018-08-03T11:51:46.931Z,32.90
2018-08-03T11:54:16.524Z,32.90
2018-08-03T11:56:46.496Z,32.90
2018-08-03T11:59:16.226Z,32.80
2018-08-03T12:01:46.075Z,32.80
2018-08-03T12:04:16.025Z,33.00
2018-08-03T12:06:45.822Z,32.90
2018-08-03T12:09:15.476Z,33.00
2018-08-03T12:11:45.176Z,33.10
2018-08-03T12:14:20.935Z,33.10
2018-08-03T12:16:51.624Z,33.10
2018-08-03T12:19:21.345Z,33.10
2018-08-03T12:21:51.799Z,33.10
2018-08-03T12:24:21.608Z,33.30
2018-08-03T12:26:52.058Z,33.30
2018-08-03T12:29:21.712Z,33.40
2018-08-03T12:31:52.340Z,33.60
2018-08-03T12:34:22.182Z,33.70
2018-08-03T12:36:52.543Z,33.70
2018-08-03T12:39:22.579Z,33.40
2018-08-03T12:41:52.721Z,33.50
2018-08-03T12:44:22.344Z,33.70
2018-08-03T12:46:52.683Z,33.70
2018-08-03T12:49:23.023Z,33.70
2018-08-03T12:51:53.392Z,33.70
2018-08-03T12:54:23.008Z,34.00
2018-08-03T12:56:53.705Z,34.50
2018-08-03T12:59:23.310Z,35.00
2018-08-03T13:02:06.969Z,35.40
2018-08-03T13:04:36.574Z,35.80
2018-08-03T13:07:06.246Z,36.20
2018-08-03T13:09:35.835Z,36.20
2018-08-03T13:12:06.008Z,36.50
2018-08-03T13:14:35.628Z,36.40
2018-08-03T13:17:05.224Z,36.50
2018-08-03T13:19:34.815Z,36.30
2018-08-03T13:22:04.538Z,36.60
2018-08-03T13:24:34.137Z,36.80
2018-08-03T13:27:03.813Z,36.70
2018-08-03T13:29:33.529Z,37.00
2018-08-03T13:32:04.216Z,37.00
2018-08-03T13:34:33.839Z,37.10
2018-08-03T13:37:03.675Z,37.30
2018-08-03T13:39:33.624Z,37.70
2018-08-03T13:42:03.445Z,37.50
2018-08-03T13:44:33.430Z,37.70
2018-08-03T13:47:03.309Z,37.60
2018-08-03T13:49:33.049Z,37.60
2018-08-03T13:52:03.299Z,38.00
2018-08-03T13:54:33.717Z,37.60
2018-08-03T13:57:03.498Z,37.70
2018-08-03T13:59:33.281Z,37.50
2018-08-03T14:02:29.179Z,37.40
2018-08-03T14:04:59.258Z,36.90
2018-08-03T14:07:29.380Z,36.70
2018-08-03T14:10:01.304Z,36.20
2018-08-03T14:12:31.090Z,35.90
2018-08-03T14:15:00.815Z,35.70
2018-08-03T14:17:30.597Z,35.60
2018-08-03T14:20:01.104Z,35.70
2018-08-03T14:22:31.246Z,35.80
2018-08-03T14:25:00.993Z,36.00
2018-08-03T14:27:30.696Z,36.10
2018-08-03T14:30:00.381Z,35.90
2018-08-03T14:32:30.308Z,35.70
2018-08-03T14:35:01.060Z,35.50
2018-08-03T14:37:30.820Z,35.20
2018-08-03T14:40:00.517Z,35.10
2018-08-03T14:42:30.317Z,35.00
2018-08-03T14:45:00.095Z,34.90
2018-08-03T14:47:30.133Z,34.90
2018-08-03T14:50:01.249Z,35.00
2018-08-03T14:55:00.434Z,34.80
2018-08-03T14:57:30.111Z,35.00
2018-08-03T15:00:00.623Z,34.90
2018-08-03T15:05:01.218Z,35.10
2018-08-03T15:07:30.809Z,35.10
2018-08-03T15:10:00.823Z,35.30
2018-08-03T15:12:30.483Z,35.40
2018-08-03T15:15:01.082Z,35.30
2018-08-03T15:17:30.894Z,35.40
2018-08-03T15:20:01.812Z,35.40
2018-08-03T15:22:31.565Z,35.50
2018-08-03T15:25:01.444Z,35.50
2018-08-03T15:27:31.564Z,35.30
2018-08-03T15:30:01.820Z,35.10
2018-08-03T15:32:31.762Z,34.90
2018-08-03T15:35:02.668Z,34.70
2018-08-03T15:37:32.483Z,34.90
2018-08-03T15:40:03.306Z,35.00
2018-08-03T15:42:33.017Z,35.10
2018-08-03T15:47:32.322Z,35.00
2018-08-03T15:50:03.554Z,34.70
2018-08-03T15:52:33.319Z,34.30
2018-08-03T15:55:03.256Z,34.20
2018-08-03T15:57:33.024Z,34.00
2018-08-03T16:00:04.330Z,33.90
2018-08-03T16:02:34.011Z,33.70
2018-08-03T16:05:05.288Z,33.50
2018-08-03T16:07:34.983Z,33.30
2018-08-03T16:12:33.961Z,33.00
2018-08-03T16:15:04.551Z,32.90
2018-08-03T16:17:34.201Z,32.80
2018-08-03T16:20:04.767Z,32.80
2018-08-03T16:22:34.390Z,32.60
2018-08-03T16:25:06.469Z,32.50
2018-08-03T16:27:36.194Z,32.40
2018-08-03T16:30:07.936Z,32.40
2018-08-03T16:32:37.554Z,32.20
2018-08-03T16:35:08.322Z,32.00
2018-08-03T16:37:38.591Z,32.00
2018-08-03T16:40:09.778Z,31.80
2018-08-03T16:42:40.850Z,31.80
2018-08-03T16:45:11.181Z,31.70
2018-08-03T16:47:41.148Z,31.50
2018-08-03T16:50:10.820Z,31.50
2018-08-03T16:52:40.820Z,31.50
2018-08-03T16:55:10.626Z,31.40
2018-08-03T16:57:41.418Z,31.30
2018-08-03T17:00:11.193Z,31.10
2018-08-03T17:02:42.298Z,31.00
2018-08-03T17:05:12.100Z,30.90
2018-08-03T17:07:41.807Z,30.90
2018-08-03T17:10:11.544Z,30.80
2018-08-03T17:12:42.399Z,30.80
2018-08-03T17:15:12.171Z,30.70
2018-08-03T17:17:41.880Z,30.70
2018-08-03T17:20:11.646Z,30.60
2018-08-03T17:22:41.364Z,30.50
2018-08-03T17:25:10.990Z,30.50
2018-08-03T17:27:42.744Z,30.30
2018-08-03T17:32:41.917Z,30.20
2018-08-03T17:37:41.200Z,30.10
2018-08-03T17:40:10.871Z,30.00
2018-08-03T17:42:41.921Z,30.00
2018-08-03T17:45:11.524Z,29.90
2018-08-03T17:47:41.214Z,29.90
2018-08-03T17:50:10.949Z,29.80
2018-08-03T17:52:44.653Z,29.80
2018-08-03T17:55:14.297Z,29.70
2018-08-03T17:57:44.640Z,29.70
2018-08-03T18:00:14.279Z,29.70
2018-08-03T18:02:44.472Z,29.60
2018-08-03T18:05:14.279Z,29.50
2018-08-03T18:07:44.011Z,29.40
2018-08-03T18:10:13.725Z,29.40
2018-08-03T18:12:44.304Z,29.20
2018-08-03T18:15:14.010Z,29.10
2018-08-03T18:17:43.749Z,29.00
2018-08-03T18:20:13.429Z,29.00
2018-08-03T18:22:43.033Z,28.90
2018-08-03T18:25:12.653Z,28.90
2018-08-03T18:27:43.214Z,28.80
2018-08-03T18:30:13.151Z,28.70
2018-08-03T18:32:42.896Z,28.60
2018-08-03T18:35:12.559Z,28.50
2018-08-03T18:37:42.171Z,28.50
2018-08-03T18:40:11.966Z,28.40
2018-08-03T18:42:42.497Z,28.30
2018-08-03T18:45:12.341Z,28.20
2018-08-03T18:47:42.087Z,28.10
2018-08-03T18:50:12.186Z,28.00
2018-08-03T18:52:41.871Z,27.90
2018-08-03T18:55:13.345Z,27.90
2018-08-03T18:57:43.407Z,27.80
2018-08-03T19:00:13.125Z,27.70
2018-08-03T19:02:42.780Z,27.50
2018-08-03T19:05:12.863Z,27.50
2018-08-03T19:07:42.585Z,27.40
2018-08-03T19:10:12.616Z,27.30
2018-08-03T19:12:43.237Z,27.20
2018-08-03T19:15:13.466Z,27.10
2018-08-03T19:17:43.157Z,27.10
2018-08-03T19:20:13.212Z,27.00
2018-08-03T19:22:42.870Z,27.00
2018-08-03T19:25:13.323Z,26.90
2018-08-03T19:27:44.163Z,26.80
2018-08-03T19:30:14.347Z,26.70
2018-08-03T19:32:44.061Z,26.60
2018-08-03T19:35:13.697Z,26.50
2018-08-03T19:37:43.367Z,26.40
2018-08-03T19:40:12.957Z,26.30
2018-08-03T19:42:43.261Z,26.10
2018-08-03T19:45:12.979Z,26.10
2018-08-03T19:47:42.568Z,26.00
2018-08-03T19:50:12.187Z,26.00
2018-08-03T19:52:41.868Z,25.80
2018-08-03T19:55:11.418Z,25.80
2018-08-03T19:57:41.913Z,25.60
2018-08-03T20:00:13.107Z,25.60
2018-08-03T20:02:42.721Z,25.60
2018-08-03T20:05:12.430Z,25.50
2018-08-03T20:07:42.061Z,25.50
2018-08-03T20:10:11.672Z,25.40
2018-08-03T20:12:42.324Z,25.40
2018-08-03T20:15:12.022Z,25.40
2018-08-03T20:17:41.789Z,25.40
2018-08-03T20:20:11.604Z,25.40
2018-08-03T20:22:41.371Z,25.30
2018-08-03T20:25:12.258Z,25.40
2018-08-03T20:27:43.787Z,25.40
2018-08-03T20:30:14.244Z,25.30
2018-08-03T20:32:44.008Z,25.30
2018-08-03T20:35:13.770Z,25.30
2018-08-03T20:37:43.490Z,25.30
2018-08-03T20:40:13.519Z,25.30
2018-08-03T20:42:44.094Z,25.20
2018-08-03T20:45:14.007Z,25.20
2018-08-03T20:47:43.665Z,25.10
2018-08-03T20:55:12.840Z,24.90
2018-08-03T20:57:43.925Z,24.90
2018-08-03T21:00:13.743Z,24.80
2018-08-03T21:02:43.736Z,24.70
2018-08-03T21:05:13.446Z,24.60
2018-08-03T21:07:43.167Z,24.50
2018-08-03T21:10:14.017Z,24.40
2018-08-03T21:12:44.483Z,24.40
2018-08-03T21:15:14.554Z,24.30
2018-08-03T21:17:44.551Z,24.30
2018-08-03T21:20:14.226Z,24.30
2018-08-03T21:22:44.176Z,24.40
2018-08-03T21:25:14.457Z,24.40
2018-08-03T21:27:45.222Z,24.40
2018-08-03T21:30:15.084Z,24.30
2018-08-03T21:32:44.738Z,24.20
2018-08-03T21:35:14.815Z,24.30
2018-08-03T21:37:44.771Z,24.30
2018-08-03T21:40:14.416Z,24.30
2018-08-03T21:42:44.297Z,24.30
2018-08-03T21:45:13.922Z,24.20
2018-08-03T21:47:43.623Z,24.20
2018-08-03T21:50:13.251Z,24.10
2018-08-03T21:52:42.912Z,24.00
2018-08-03T21:55:13.179Z,23.90
2018-08-03T21:57:44.095Z,23.80
2018-08-03T22:00:19.383Z,23.70
2018-08-03T22:02:49.253Z,23.70
2018-08-03T22:05:18.952Z,23.70
2018-08-03T22:07:48.895Z,23.60
2018-08-03T22:10:18.612Z,23.50
2018-08-03T22:12:48.297Z,23.50
2018-08-03T22:15:17.910Z,23.50
2018-08-03T22:17:47.557Z,23.50
2018-08-03T22:20:17.250Z,23.50
2018-08-03T22:22:46.867Z,23.40
2018-08-03T22:25:16.528Z,23.40
2018-08-03T22:27:46.136Z,23.40
2018-08-03T22:30:16.203Z,23.30
2018-08-03T22:32:45.940Z,23.30
2018-08-03T22:35:15.473Z,23.30
2018-08-03T22:37:45.201Z,23.20
2018-08-03T22:40:14.879Z,23.20
2018-08-03T22:42:44.663Z,23.20
2018-08-03T22:45:14.297Z,23.10
2018-08-03T22:47:43.884Z,23.10
2018-08-03T22:50:13.508Z,23.10
2018-08-03T22:52:43.121Z,23.20
2018-08-03T22:55:12.733Z,23.20
2018-08-03T22:57:42.967Z,23.10
2018-08-03T23:00:12.627Z,23.10
2018-08-03T23:02:42.262Z,23.00
2018-08-03T23:05:11.910Z,22.90
2018-08-03T23:07:41.543Z,22.90
2018-08-03T23:10:11.156Z,22.90
2018-08-03T23:12:41.912Z,22.90
2018-08-03T23:15:11.544Z,22.80
2018-08-03T23:17:41.153Z,22.70
2018-08-03T23:20:10.738Z,22.70
2018-08-03T23:25:09.771Z,22.60
2018-08-03T23:27:41.160Z,22.70
2018-08-03T23:30:11.594Z,22.60
2018-08-03T23:32:42.145Z,22.70
2018-08-03T23:35:12.074Z,22.90
2018-08-03T23:37:42.284Z,22.90
2018-08-03T23:42:42.977Z,23.10
2018-08-03T23:45:12.802Z,23.20
2018-08-03T23:47:42.749Z,23.20
2018-08-03T23:50:16.195Z,23.20
2018-08-03T23:52:46.859Z,23.20
2018-08-03T23:55:16.788Z,23.10
2018-08-03T23:57:46.968Z,23.10
